Time;durP1;ratioP1;P1;durP2;ratioP2;P2;SDS_P1;SDS_P2;PMS_P1;PMS_P2;Temp;Humidity;BMP_temperature;BMP_pressure;BME280_temperature;BME280_humidity;BME280_pressure;Samples;Min_cycle;Max_cycle;Signal;HPM_P1;HPM_P2
2021/01/10 00:01:47;;;;;;;2.17;2.00;;;;;;;0.93;100.00;96769.19;4954040;28;20256;-94
2021/01/10 00:04:15;;;;;;;1.50;1.40;;;;;;;0.88;100.00;96771.22;4954085;28;20191;-94
2021/01/10 00:06:41;;;;;;;1.40;1.30;;;;;;;0.81;100.00;96782.84;4954156;28;20234;-93
2021/01/10 00:09:08;;;;;;;1.03;1.03;;;;;;;0.93;100.00;96789.91;4954009;29;20202;-93
2021/01/10 00:11:41;;;;;;;1.40;1.30;;;;;;;0.87;100.00;96782.50;4954032;29;20190;-93
2021/01/10 00:14:08;;;;;;;1.63;1.53;;;;;;;0.95;100.00;96788.06;4954096;29;20214;-94
2021/01/10 00:16:38;;;;;;;1.13;1.03;;;;;;;0.86;100.00;96802.34;4953855;28;20201;-92
2021/01/10 00:19:05;;;;;;;0.60;0.60;;;;;;;0.76;100.00;96795.19;4954232;28;20209;-92
2021/01/10 00:21:36;;;;;;;1.30;1.23;;;;;;;0.88;100.00;96800.53;4953682;29;20229;-92
2021/01/10 00:24:03;;;;;;;0.93;0.93;;;;;;;0.84;100.00;96796.44;4953718;29;20198;-93
2021/01/10 00:26:33;;;;;;;1.40;1.30;;;;;;;0.97;100.00;96799.19;4954328;28;20226;-93
2021/01/10 00:29:01;;;;;;;1.97;1.77;;;;;;;0.90;100.00;96803.88;4953914;28;20241;-93
2021/01/10 00:31:29;;;;;;;1.20;1.10;;;;;;;0.92;100.00;96808.94;4953719;28;20238;-92
2021/01/10 00:33:56;;;;;;;0.60;0.60;;;;;;;0.89;100.00;96807.34;4953785;28;20198;-92
2021/01/10 00:36:23;;;;;;;0.60;0.60;;;;;;;0.81;100.00;96799.19;4953662;28;20678;-93
2021/01/10 00:38:51;;;;;;;0.53;0.53;;;;;;;0.75;100.00;96806.47;4953432;28;20247;-93
2021/01/10 00:41:17;;;;;;;0.83;0.83;;;;;;;0.93;100.00;96813.19;4953702;28;20206;-92
2021/01/10 00:43:44;;;;;;;0.80;0.80;;;;;;;0.99;100.00;96806.84;4953223;29;20202;-92
2021/01/10 00:46:14;;;;;;;1.50;1.40;;;;;;;0.91;100.00;96799.53;4953184;28;20320;-93
2021/01/10 00:48:41;;;;;;;2.13;1.57;;;;;;;1.02;100.00;96791.16;4953159;28;20249;-92
2021/01/10 00:51:13;;;;;;;3.83;2.87;;;;;;;0.90;100.00;96790.06;4953698;29;20194;-92
2021/01/10 00:53:40;;;;;;;3.20;2.50;;;;;;;0.90;100.00;96790.06;4953338;29;20257;-92
2021/01/10 00:56:09;;;;;;;3.27;2.30;;;;;;;0.86;100.00;96789.41;4953331;28;20265;-92
2021/01/10 00:58:36;;;;;;;4.33;3.93;;;;;;;0.83;100.00;96786.16;4953048;29;20198;-93
2021/01/10 01:01:03;;;;;;;3.43;2.90;;;;;;;0.88;100.00;96789.34;4953066;29;20198;-92
2021/01/10 01:03:30;;;;;;;1.90;1.80;;;;;;;0.83;100.00;96793.94;4936658;28;20289;-92
2021/01/10 01:05:57;;;;;;;1.50;1.40;;;;;;;0.81;100.00;96794.03;4934395;29;20206;-94
2021/01/10 01:08:24;;;;;;;1.73;1.50;;;;;;;0.93;100.00;96795.91;4934157;29;20575;-93
2021/01/10 01:10:51;;;;;;;1.60;1.50;;;;;;;0.88;100.00;96803.09;4933954;29;20206;-92
2021/01/10 01:13:19;;;;;;;1.50;1.40;;;;;;;0.87;100.00;96810.97;4933840;29;20203;-93
2021/01/10 01:15:50;;;;;;;0.90;0.90;;;;;;;0.83;100.00;96812.03;4934330;28;20280;-93
2021/01/10 01:18:18;;;;;;;1.07;1.07;;;;;;;0.89;100.00;96809.13;4933726;29;20203;-92
2021/01/10 01:20:45;;;;;;;1.83;1.67;;;;;;;0.87;100.00;96803.22;4933958;29;20190;-93
2021/01/10 01:23:12;;;;;;;0.70;0.70;;;;;;;0.97;100.00;96796.59;4933821;29;20195;-94
2021/01/10 01:25:39;;;;;;;1.43;1.13;;;;;;;0.95;100.00;96812.19;4933758;28;20211;-93
2021/01/10 01:28:06;;;;;;;0.83;0.83;;;;;;;0.91;100.00;96805.53;4933573;28;20227;-94
2021/01/10 01:30:34;;;;;;;0.97;0.97;;;;;;;0.98;100.00;96803.44;4933762;29;20202;-94
2021/01/10 01:33:01;;;;;;;1.00;1.00;;;;;;;0.95;100.00;96806.19;4933877;28;20207;-93
2021/01/10 01:35:28;;;;;;;0.70;0.70;;;;;;;0.94;100.00;96809.72;4933904;28;20248;-94
2021/01/10 01:37:54;;;;;;;0.70;0.70;;;;;;;0.99;100.00;96815.44;4933876;28;20274;-93
2021/01/10 01:40:21;;;;;;;1.43;1.33;;;;;;;1.09;100.00;96808.84;4933586;28;20214;-93
2021/01/10 01:42:48;;;;;;;0.80;0.80;;;;;;;1.11;100.00;96804.41;4933415;28;20203;-93
2021/01/10 01:45:15;;;;;;;0.77;0.70;;;;;;;0.99;100.00;96807.69;4933432;28;20202;-94
2021/01/10 01:47:43;;;;;;;0.53;0.53;;;;;;;1.02;100.00;96797.16;4933171;28;20293;-94
2021/01/10 01:50:11;;;;;;;1.10;1.00;;;;;;;0.96;100.00;96810.44;4933341;28;20198;-94
2021/01/10 01:52:40;;;;;;;0.90;0.90;;;;;;;0.83;100.00;96809.44;4933635;29;20198;-94
2021/01/10 01:55:08;;;;;;;0.80;0.80;;;;;;;0.83;100.00;96824.97;4933345;28;20245;-94
2021/01/10 01:57:35;;;;;;;0.80;0.80;;;;;;;0.85;100.00;96841.25;4933405;28;20203;-95
2021/01/10 02:00:02;;;;;;;16.13;10.07;;;;;;;1.01;100.00;96829.16;4933096;29;20682;-95
2021/01/10 02:02:29;;;;;;;21.37;9.97;;;;;;;1.03;100.00;96811.75;4933094;29;20241;-93
2021/01/10 02:05:06;;;;;;;7.23;5.30;;;;;;;1.07;100.00;96813.25;4933141;28;20255;-93
2021/01/10 02:07:40;;;;;;;5.73;4.93;;;;;;;1.08;100.00;96822.69;4933204;28;20226;-94
2021/01/10 02:10:09;;;;;;;2.47;1.90;;;;;;;1.08;100.00;96834.81;4933595;28;20183;-94
2021/01/10 02:12:38;;;;;;;1.30;1.20;;;;;;;1.02;100.00;96842.91;4933230;28;20254;-93
2021/01/10 02:15:09;;;;;;;2.47;2.27;;;;;;;1.13;100.00;96827.59;4933320;28;20686;-94
2021/01/10 02:17:37;;;;;;;2.23;2.03;;;;;;;1.17;100.00;96834.28;4933032;28;20194;-94
2021/01/10 02:20:09;;;;;;;2.20;2.00;;;;;;;1.17;100.00;96829.94;4932794;29;20680;-93
2021/01/10 02:22:44;;;;;;;1.67;1.57;;;;;;;1.27;100.00;96826.81;4935599;29;20218;-91
2021/01/10 02:25:13;;;;;;;3.70;3.40;;;;;;;1.26;100.00;96822.56;4936707;29;20182;-95
2021/01/10 02:27:41;;;;;;;5.00;4.53;;;;;;;1.31;100.00;96823.13;4936228;29;20226;-93
2021/01/10 02:30:09;;;;;;;2.13;1.93;;;;;;;1.32;100.00;96840.38;4936344;29;20210;-94
2021/01/10 02:32:38;;;;;;;1.87;1.77;;;;;;;1.08;100.00;96840.81;4936007;29;20198;-94
2021/01/10 02:35:08;;;;;;;2.13;2.00;;;;;;;1.31;100.00;96823.13;4936183;28;20221;-92
2021/01/10 02:38:04;;;;;;;2.83;1.67;;;;;;;1.23;100.00;96836.53;4936071;28;20191;-93
2021/01/10 02:40:36;;;;;;;2.27;1.57;;;;;;;1.26;100.00;96831.19;4961862;28;20199;-94
2021/01/10 02:43:11;;;;;;;1.30;1.20;;;;;;;1.36;100.00;96836.66;4936341;28;20206;-92
2021/01/10 02:45:41;;;;;;;1.33;1.27;;;;;;;1.32;100.00;96832.59;4936076;28;20281;-94
2021/01/10 02:48:08;;;;;;;1.00;1.00;;;;;;;1.15;100.00;96843.91;4935526;28;20372;-93
2021/01/10 02:50:35;;;;;;;1.10;1.10;;;;;;;1.35;100.00;96833.25;4935802;29;20744;-93
2021/01/10 02:53:03;;;;;;;0.60;0.60;;;;;;;1.07;100.00;96833.13;4935789;29;20191;-92
2021/01/10 02:55:31;;;;;;;0.90;0.90;;;;;;;1.27;100.00;96842.38;4936028;28;20210;-92
2021/01/10 02:58:02;;;;;;;0.90;0.90;;;;;;;0.96;100.00;96836.31;4935733;29;20707;-92
2021/01/10 03:00:30;;;;;;;0.57;0.57;;;;;;;1.23;100.00;96843.47;4935867;29;20191;-93
2021/01/10 03:02:58;;;;;;;0.47;0.47;;;;;;;1.28;100.00;96850.06;4935694;29;20205;-93
2021/01/10 03:05:27;;;;;;;0.80;0.80;;;;;;;1.16;100.00;96856.75;4935699;28;20273;-93
2021/01/10 03:07:56;;;;;;;0.67;0.67;;;;;;;1.13;100.00;96858.69;4935626;29;20703;-94
2021/01/10 03:10:24;;;;;;;0.70;0.70;;;;;;;1.10;100.00;96857.09;4935531;29;20230;-92
2021/01/10 03:12:51;;;;;;;0.60;0.60;;;;;;;1.08;100.00;96855.53;4935711;28;20238;-93
2021/01/10 03:15:19;;;;;;;0.77;0.77;;;;;;;0.99;100.00;96862.03;4935825;29;20686;-93
2021/01/10 03:17:48;;;;;;;0.70;0.70;;;;;;;1.00;100.00;96874.06;4935396;29;20199;-92
2021/01/10 03:20:17;;;;;;;0.93;0.93;;;;;;;0.89;100.00;96864.28;4935600;28;20206;-92
2021/01/10 03:22:45;;;;;;;0.60;0.60;;;;;;;1.22;100.00;96867.69;4935734;28;20207;-93
2021/01/10 03:25:14;;;;;;;9.33;7.17;;;;;;;1.23;100.00;96867.59;4936219;28;20650;-94
2021/01/10 03:27:41;;;;;;;5.23;4.43;;;;;;;1.10;100.00;96857.09;4935294;29;20269;-93
2021/01/10 03:30:09;;;;;;;6.43;5.57;;;;;;;1.09;100.00;96863.19;4935494;29;20249;-93
2021/01/10 03:32:38;;;;;;;5.60;4.67;;;;;;;1.06;100.00;96878.91;4935553;28;20234;-90
2021/01/10 03:35:06;;;;;;;2.93;2.73;;;;;;;1.11;100.00;96889.84;4935300;29;20225;-93
2021/01/10 03:37:33;;;;;;;2.87;2.67;;;;;;;0.94;100.00;96875.25;4935347;28;20237;-93
2021/01/10 03:40:00;;;;;;;2.33;1.63;;;;;;;1.13;100.00;96876.81;4935285;29;20203;-92
2021/01/10 03:42:27;;;;;;;1.83;1.40;;;;;;;1.00;100.00;96870.63;4935052;29;20210;-94
2021/01/10 03:44:54;;;;;;;0.90;0.90;;;;;;;1.06;100.00;96878.06;4935303;29;20199;-93
2021/01/10 03:47:21;;;;;;;1.03;1.03;;;;;;;1.39;100.00;96870.16;4935051;28;20231;-92
2021/01/10 03:49:49;;;;;;;0.70;0.70;;;;;;;1.26;100.00;96845.88;4935080;29;20190;-92
2021/01/10 03:52:16;;;;;;;0.90;0.90;;;;;;;1.27;100.00;96844.97;4935026;28;20203;-94
2021/01/10 03:54:43;;;;;;;1.00;1.00;;;;;;;1.12;100.00;96857.84;4935073;28;20207;-92
2021/01/10 03:57:09;;;;;;;1.60;1.50;;;;;;;1.25;100.00;96852.81;4934900;29;20199;-93
2021/01/10 03:59:36;;;;;;;2.00;1.80;;;;;;;1.04;100.00;96874.72;4935156;28;20195;-93
2021/01/10 04:02:03;;;;;;;1.33;1.23;;;;;;;0.93;100.00;96885.66;4934803;29;20203;-92
2021/01/10 04:04:30;;;;;;;1.80;1.70;;;;;;;0.81;100.00;96888.94;4935008;28;20207;-93
2021/01/10 04:06:58;;;;;;;1.20;1.10;;;;;;;0.85;100.00;96886.09;4934754;28;20284;-93
2021/01/10 04:09:25;;;;;;;1.57;1.47;;;;;;;1.18;100.00;96867.88;4935344;28;20601;-93
2021/01/10 04:11:51;;;;;;;1.20;1.10;;;;;;;1.31;100.00;96855.03;4934744;28;20676;-93
2021/01/10 04:14:18;;;;;;;1.10;1.10;;;;;;;1.36;100.00;96862.56;4934862;29;20203;-93
2021/01/10 04:16:45;;;;;;;1.23;1.13;;;;;;;1.35;100.00;96873.81;4934733;29;20199;-93
2021/01/10 04:19:12;;;;;;;1.00;1.00;;;;;;;1.42;100.00;96870.81;4934653;29;20246;-92
2021/01/10 04:21:39;;;;;;;1.70;1.60;;;;;;;1.05;100.00;96881.59;4934564;28;20257;-93
2021/01/10 04:24:07;;;;;;;2.53;1.90;;;;;;;1.34;100.00;96890.31;4934488;28;20269;-93
2021/01/10 04:26:38;;;;;;;2.50;1.70;;;;;;;1.21;100.00;96890.13;4934587;28;20230;-92
2021/01/10 04:29:05;;;;;;;1.50;1.40;;;;;;;1.38;100.00;96878.84;4934555;28;20282;-93
2021/01/10 04:31:32;;;;;;;1.27;1.17;;;;;;;1.24;100.00;96884.78;4934444;28;20206;-93
2021/01/10 04:33:59;;;;;;;1.40;1.30;;;;;;;1.17;100.00;96893.81;4934611;28;20238;-93
2021/01/10 04:36:28;;;;;;;1.80;1.70;;;;;;;1.21;100.00;96878.94;4934678;29;20203;-93
2021/01/10 04:38:56;;;;;;;1.37;1.27;;;;;;;1.36;100.00;96894.47;4934411;28;20210;-93
2021/01/10 04:41:25;;;;;;;1.47;1.37;;;;;;;1.32;100.00;96892.16;4934207;28;20206;-92
2021/01/10 04:43:53;;;;;;;0.97;0.97;;;;;;;1.24;100.00;96891.72;4933809;29;20206;-93
2021/01/10 04:46:21;;;;;;;1.07;0.90;;;;;;;1.41;100.00;96894.22;4934240;29;20194;-93
2021/01/10 04:48:49;;;;;;;0.60;0.60;;;;;;;1.36;100.00;96891.06;4934189;28;20286;-93
2021/01/10 04:51:17;;;;;;;1.00;1.00;;;;;;;1.51;100.00;96897.13;4934131;29;20293;-92
2021/01/10 04:53:48;;;;;;;3.40;3.10;;;;;;;1.48;100.00;96887.75;4934214;28;20277;-94
2021/01/10 04:56:18;;;;;;;4.50;3.07;;;;;;;1.34;100.00;96896.31;4934214;28;20254;-93
2021/01/10 04:58:51;;;;;;;1.30;1.20;;;;;;;1.20;100.00;96885.91;4934347;28;20203;-93
2021/01/10 05:01:21;;;;;;;6.93;4.70;;;;;;;1.04;100.00;96904.06;4934155;29;20644;-93
2021/01/10 05:03:48;;;;;;;9.90;8.73;;;;;;;1.26;100.00;96908.03;4933939;28;20242;-93
2021/01/10 05:06:16;;;;;;;4.37;3.97;;;;;;;1.24;100.00;96895.16;4933801;29;20191;-92
2021/01/10 05:08:44;;;;;;;5.77;5.23;;;;;;;1.47;100.00;96919.78;4933897;28;20202;-93
2021/01/10 05:11:11;;;;;;;2.40;2.27;;;;;;;1.34;100.00;96917.03;4933715;29;20203;-93
2021/01/10 05:13:37;;;;;;;2.10;2.00;;;;;;;1.24;100.00;96926.22;4933855;29;20261;-93
2021/01/10 05:16:06;;;;;;;1.77;1.67;;;;;;;1.31;100.00;96926.72;4933760;28;20250;-93
2021/01/10 05:18:33;;;;;;;1.47;1.37;;;;;;;1.39;100.00;96922.81;4934244;29;20210;-93
2021/01/10 05:21:00;;;;;;;1.00;1.00;;;;;;;1.44;100.00;96927.72;4933906;28;20233;-92
2021/01/10 05:23:27;;;;;;;0.90;0.90;;;;;;;1.48;100.00;96912.84;4933998;29;20294;-94
2021/01/10 05:26:04;;;;;;;1.00;0.80;;;;;;;1.37;100.00;96903.06;4934020;29;20627;-94
2021/01/10 05:28:32;;;;;;;2.50;2.30;;;;;;;1.48;100.00;96910.25;4933805;28;20726;-93
2021/01/10 05:31:01;;;;;;;4.20;3.80;;;;;;;1.23;100.00;96910.78;4933668;29;20605;-93
2021/01/10 05:33:29;;;;;;;2.90;2.70;;;;;;;1.27;100.00;96914.88;4933657;29;20259;-92
2021/01/10 05:35:57;;;;;;;3.00;2.80;;;;;;;1.39;100.00;96912.44;4933939;29;20277;-93
2021/01/10 05:38:29;;;;;;;4.70;4.30;;;;;;;1.39;100.00;96911.59;4933477;28;20199;-93
2021/01/10 05:40:57;;;;;;;6.10;5.07;;;;;;;1.45;100.00;96920.78;4933494;29;20206;-92
2021/01/10 05:43:25;;;;;;;4.83;3.70;;;;;;;1.51;100.00;96929.03;4933353;29;20672;-92
2021/01/10 05:45:52;;;;;;;3.40;3.10;;;;;;;1.33;100.00;96928.31;4933509;28;20213;-92
2021/01/10 05:48:20;;;;;;;3.67;3.30;;;;;;;1.08;100.00;96928.84;4933064;28;20793;-92
2021/01/10 05:50:50;;;;;;;5.10;4.60;;;;;;;1.15;100.00;96929.34;4933622;28;20348;-92
2021/01/10 05:53:18;;;;;;;6.03;5.43;;;;;;;1.16;100.00;96920.66;4933619;28;20206;-92
2021/01/10 05:56:02;;;;;;;3.90;3.60;;;;;;;1.29;100.00;96919.06;4932227;28;20298;-93
2021/01/10 05:58:31;;;;;;;3.13;2.83;;;;;;;1.18;100.00;96927.41;4933180;29;20273;-93
2021/01/10 06:01:20;;;;;;;;;;;;;;;;;;;;;
2021/01/10 06:03:48;;;;;;;3.77;3.47;;;;;;;1.63;100.00;96922.34;4931591;29;20210;-90
2021/01/10 06:06:16;;;;;;;1.83;1.67;;;;;;;1.47;100.00;96919.78;4933200;29;20191;-92
2021/01/10 06:08:43;;;;;;;2.07;1.87;;;;;;;1.29;100.00;96923.41;4933265;28;20201;-93
2021/01/10 06:11:24;;;;;;;6.47;5.87;;;;;;;1.15;100.00;96922.41;4933037;29;20225;-94
2021/01/10 06:13:54;;;;;;;5.03;4.50;;;;;;;1.06;100.00;96914.31;4933131;29;20249;-93
2021/01/10 06:16:23;;;;;;;9.37;7.30;;;;;;;1.06;100.00;96920.31;4933245;28;20211;-95
2021/01/10 06:18:53;;;;;;;16.27;9.77;;;;;;;1.13;100.00;96918.22;4932916;28;20290;-92
2021/01/10 06:21:23;;;;;;;3.60;3.30;;;;;;;1.15;100.00;96924.16;4933245;28;20195;-93
2021/01/10 06:23:52;;;;;;;3.83;3.47;;;;;;;1.04;100.00;96917.00;4933092;28;20235;-94
2021/01/10 06:26:23;;;;;;;1.83;1.73;;;;;;;1.24;100.00;96915.03;4932834;29;20210;-95
2021/01/10 06:28:58;;;;;;;2.87;1.50;;;;;;;1.34;100.00;96918.78;4937360;28;20212;-93
2021/01/10 06:31:27;;;;;;;2.67;2.43;;;;;;;1.38;100.00;96936.66;4952075;29;20204;-94
2021/01/10 06:34:03;;;;;;;2.03;1.93;;;;;;;1.19;100.00;96939.44;4951895;28;20198;-94
2021/01/10 06:36:34;;;;;;;2.80;2.60;;;;;;;1.28;100.00;96938.09;4951963;28;20224;-93
2021/01/10 06:39:04;;;;;;;3.20;2.90;;;;;;;1.35;100.00;96947.22;4952322;29;20193;-95
2021/01/10 06:42:09;;;;;;;21.73;14.83;;;;;;;1.10;100.00;96952.88;4952158;28;20682;-94
2021/01/10 06:44:51;;;;;;;7.53;6.63;;;;;;;1.27;100.00;96964.06;4951708;28;20588;-94
2021/01/10 06:47:22;;;;;;;3.50;3.20;;;;;;;1.23;100.00;96955.63;4955009;28;20229;-95
2021/01/10 06:49:50;;;;;;;4.97;4.47;;;;;;;1.12;100.00;96947.63;4944290;28;20675;-94
2021/01/10 06:52:20;;;;;;;7.80;6.60;;;;;;;1.14;100.00;96959.59;4954271;28;20196;-94
2021/01/10 06:54:49;;;;;;;8.47;7.43;;;;;;;1.32;100.00;96959.50;4940991;29;20203;-93
2021/01/10 06:57:16;;;;;;;5.97;5.37;;;;;;;1.32;100.00;96965.50;4949096;29;20214;-95
2021/01/10 07:00:08;;;;;;;10.27;8.83;;;;;;;1.25;100.00;96971.94;4952437;29;20293;-93
2021/01/10 07:03:10;;;;;;;16.67;12.50;;;;;;;1.23;100.00;96965.16;4953150;29;20209;-95
2021/01/10 07:06:08;;;;;;;16.03;9.00;;;;;;;1.45;100.00;96970.00;4953544;28;20209;-95
2021/01/10 07:08:44;;;;;;;15.33;11.30;;;;;;;1.69;100.00;96975.56;4956557;28;20236;-95
2021/01/10 07:11:35;;;;;;;7.70;6.90;;;;;;;1.61;100.00;96976.00;4956398;29;20217;-95
2021/01/10 07:14:25;;;;;;;8.13;6.57;;;;;;;1.49;100.00;96984.44;4958508;29;20244;-96
2021/01/10 07:17:11;;;;;;;16.07;11.13;;;;;;;1.46;100.00;96995.00;4956803;29;20294;-96
2021/01/10 07:19:42;;;;;;;15.07;12.63;;;;;;;1.44;100.00;96987.28;4956304;28;20206;-94
2021/01/10 07:22:26;;;;;;;17.97;13.40;;;;;;;1.47;100.00;96991.47;4955886;28;20285;-93
2021/01/10 07:24:55;;;;;;;20.07;16.03;;;;;;;1.38;100.00;97000.56;4955243;28;20698;-94
2021/01/10 07:27:33;;;;;;;14.63;9.00;;;;;;;1.56;100.00;96998.72;4954562;28;20272;-94
2021/01/10 07:30:20;;;;;;;17.60;13.60;;;;;;;1.46;100.00;97003.59;4958317;28;20284;-95
2021/01/10 07:32:50;;;;;;;7.90;6.50;;;;;;;1.24;100.00;97013.44;4960128;29;20682;-95
2021/01/10 07:35:17;;;;;;;6.57;5.53;;;;;;;1.28;100.00;97007.16;4957242;28;20205;-95
2021/01/10 07:37:46;;;;;;;17.40;12.50;;;;;;;1.52;100.00;97011.00;4955600;29;20303;-94
2021/01/10 07:40:26;;;;;;;9.00;7.70;;;;;;;1.51;100.00;97024.06;4955868;28;20285;-95
2021/01/10 07:43:01;;;;;;;10.97;7.23;;;;;;;1.27;100.00;97026.22;4954735;29;20285;-95
2021/01/10 07:45:39;;;;;;;13.93;9.50;;;;;;;1.33;100.00;97023.31;4954782;28;20198;-95
2021/01/10 07:48:07;;;;;;;8.40;6.60;;;;;;;1.47;100.00;97025.97;4954419;28;20238;-95
2021/01/10 07:50:34;;;;;;;8.50;6.70;;;;;;;1.25;100.00;97028.03;4955073;28;20202;-95
2021/01/10 07:53:01;;;;;;;9.83;7.53;;;;;;;1.39;100.00;97021.22;4955243;28;20202;-95
2021/01/10 07:55:31;;;;;;;12.10;10.27;;;;;;;1.56;100.00;97016.84;4955050;28;20222;-88
2021/01/10 07:58:19;;;;;;;23.10;17.10;;;;;;;1.38;100.00;97013.53;4954268;29;20593;-93
2021/01/10 08:00:53;;;;;;;52.17;32.07;;;;;;;1.49;100.00;97011.19;4955436;29;20202;-94
2021/01/10 08:03:23;;;;;;;59.03;33.77;;;;;;;1.40;100.00;97022.88;4954480;29;20210;-94
2021/01/10 08:06:01;;;;;;;24.30;16.33;;;;;;;1.59;100.00;97027.91;4954741;29;20227;-93
2021/01/10 08:08:45;;;;;;;28.43;19.30;;;;;;;1.72;100.00;97032.41;4954191;28;20309;-92
2021/01/10 08:11:28;;;;;;;12.13;10.00;;;;;;;1.75;100.00;97038.25;4954746;28;20597;-94
2021/01/10 08:13:55;;;;;;;14.63;13.07;;;;;;;1.87;100.00;97047.94;4954434;28;20746;-93
2021/01/10 08:16:31;;;;;;;7.70;6.63;;;;;;;1.60;100.00;97050.31;4954172;28;20284;-92
2021/01/10 08:19:04;;;;;;;10.20;9.20;;;;;;;1.79;100.00;97038.91;4954405;28;20190;-94
2021/01/10 08:21:31;;;;;;;10.37;9.30;;;;;;;1.75;100.00;97034.81;4955486;29;20643;-93
2021/01/10 08:23:59;;;;;;;6.83;6.23;;;;;;;1.82;100.00;97038.75;4953910;28;20285;-93
2021/01/10 08:26:27;;;;;;;3.80;3.53;;;;;;;1.39;100.00;97034.19;4954788;29;20699;-93
2021/01/10 08:28:55;;;;;;;10.40;9.30;;;;;;;1.61;100.00;97041.59;4953585;29;20210;-92
2021/01/10 08:31:24;;;;;;;8.07;6.87;;;;;;;1.66;100.00;97055.16;4953770;29;20210;-93
2021/01/10 08:33:58;;;;;;;6.10;5.03;;;;;;;1.66;100.00;97052.56;4954230;29;20210;-93
2021/01/10 08:36:26;;;;;;;6.40;5.83;;;;;;;1.87;100.00;97047.06;4953925;28;20201;-93
2021/01/10 08:38:54;;;;;;;4.67;4.27;;;;;;;1.79;100.00;97044.09;4954017;29;20205;-94
2021/01/10 08:41:27;;;;;;;3.57;3.17;;;;;;;1.88;100.00;97034.06;4953878;28;20283;-92
2021/01/10 08:43:56;;;;;;;3.53;3.23;;;;;;;1.87;100.00;97028.94;4953575;29;20213;-91
2021/01/10 08:46:23;;;;;;;5.80;4.27;;;;;;;1.95;100.00;97013.81;4954293;28;20655;-93
2021/01/10 08:48:50;;;;;;;2.80;2.60;;;;;;;1.95;100.00;97007.78;4953215;28;20233;-89
2021/01/10 08:51:35;;;;;;;3.20;2.90;;;;;;;1.90;100.00;97005.44;4954213;29;20206;-91
2021/01/10 08:54:03;;;;;;;5.53;5.03;;;;;;;1.74;100.00;97020.19;4953518;28;20206;-91
2021/01/10 08:56:32;;;;;;;9.60;8.60;;;;;;;1.79;100.00;97029.38;4953521;28;20206;-93
2021/01/10 08:58:59;;;;;;;15.30;12.70;;;;;;;2.00;100.00;97044.66;4953397;29;20296;-95
2021/01/10 09:01:27;;;;;;;6.47;5.83;;;;;;;1.89;100.00;97037.47;4953674;28;20259;-94
2021/01/10 09:04:05;;;;;;;6.77;6.17;;;;;;;1.95;100.00;97038.91;4955062;28;20289;-93
2021/01/10 09:06:53;;;;;;;5.93;5.40;;;;;;;1.99;100.00;97017.06;4954611;29;20205;-94
2021/01/10 09:09:26;;;;;;;7.30;6.60;;;;;;;2.00;100.00;97003.16;4954540;28;20202;-95
2021/01/10 09:12:02;;;;;;;3.37;3.07;;;;;;;2.13;100.00;97004.13;4953644;28;20198;-92
2021/01/10 09:14:33;;;;;;;5.63;4.60;;;;;;;2.06;100.00;96995.88;4953236;29;20233;-91
2021/01/10 09:17:02;;;;;;;10.80;9.70;;;;;;;1.96;100.00;96997.31;4952956;28;20191;-93
2021/01/10 09:19:37;;;;;;;9.43;8.53;;;;;;;2.18;100.00;96988.28;4953132;28;20202;-89
2021/01/10 09:22:05;;;;;;;7.40;6.63;;;;;;;2.16;100.00;96975.44;4952773;29;20220;-90
2021/01/10 09:24:40;;;;;;;5.23;4.83;;;;;;;2.44;100.00;96974.63;4952693;29;20228;-91
2021/01/10 09:27:13;;;;;;;5.37;4.87;;;;;;;2.46;100.00;96974.53;4952372;28;20296;-89
2021/01/10 09:29:41;;;;;;;8.03;7.40;;;;;;;2.50;100.00;96974.28;4952826;29;20198;-91
2021/01/10 09:32:09;;;;;;;7.40;6.70;;;;;;;2.54;100.00;96986.13;4952799;29;20190;-90
2021/01/10 09:34:42;;;;;;;14.40;13.10;;;;;;;2.75;100.00;96978.81;4953086;28;20689;-91
2021/01/10 09:37:10;;;;;;;12.40;11.20;;;;;;;2.59;100.00;96980.66;4952956;29;20206;-91
2021/01/10 09:39:43;;;;;;;9.13;8.23;;;;;;;2.53;100.00;96975.84;4953287;28;20726;-92
2021/01/10 09:42:12;;;;;;;277.57;250.80;;;;;;;2.72;100.00;96983.38;4952339;29;20190;-91
2021/01/10 09:44:40;;;;;;;57.00;51.80;;;;;;;2.77;100.00;96987.38;4952659;28;20214;-92
2021/01/10 09:47:07;;;;;;;10.50;9.50;;;;;;;2.77;100.00;96984.75;4952602;28;20320;-94
2021/01/10 09:49:35;;;;;;;27.17;24.77;;;;;;;2.86;100.00;96980.75;4952099;28;20237;-92
2021/01/10 09:52:04;;;;;;;4.93;4.53;;;;;;;2.78;100.00;96972.63;4953066;28;20669;-91
2021/01/10 09:54:35;;;;;;;6.13;5.30;;;;;;;2.83;100.00;96966.19;4952293;28;20206;-92
2021/01/10 09:57:16;;;;;;;5.97;5.33;;;;;;;2.75;100.00;96962.41;4952461;28;20209;-92
2021/01/10 09:59:45;;;;;;;5.57;5.07;;;;;;;2.76;100.00;96966.66;4954512;29;20206;-93
2021/01/10 10:02:15;;;;;;;7.93;7.30;;;;;;;2.73;100.00;96964.25;4952320;28;20259;-94
2021/01/10 10:04:44;;;;;;;5.93;5.10;;;;;;;2.77;100.00;96960.53;4954146;29;20271;-93
2021/01/10 10:07:11;;;;;;;8.77;7.87;;;;;;;2.83;100.00;96949.78;4952336;29;20614;-94
2021/01/10 10:09:52;;;;;;;4.00;3.70;;;;;;;2.73;100.00;96956.47;4953377;29;20194;-93
2021/01/10 10:12:20;;;;;;;4.97;4.57;;;;;;;2.78;100.00;96980.41;4952879;28;20285;-91
2021/01/10 10:14:53;;;;;;;2.10;1.90;;;;;;;2.77;100.00;96965.72;4953886;28;20198;-92
2021/01/10 10:17:21;;;;;;;1.90;1.80;;;;;;;2.83;100.00;96973.16;4952505;29;20216;-93
2021/01/10 10:19:48;;;;;;;8.97;7.67;;;;;;;2.81;100.00;96981.06;4952889;28;20619;-91
2021/01/10 10:22:32;;;;;;;696.37;600.00;;;;;;;2.91;100.00;96970.94;4957731;28;20283;-95
2021/01/10 10:27:56;;;;;;;54.47;49.70;;;;;;;3.01;100.00;96940.03;4956978;28;20237;-96
2021/01/10 10:30:25;;;;;;;52.43;47.70;;;;;;;3.00;100.00;96931.41;4952841;29;20206;-94
2021/01/10 10:32:52;;;;;;;131.20;120.40;;;;;;;3.04;100.00;96942.44;4953771;28;20296;-93
2021/01/10 10:35:19;;;;;;;21.03;19.20;;;;;;;3.09;100.00;96945.59;4955041;28;20660;-92
2021/01/10 10:37:48;;;;;;;31.93;29.03;;;;;;;3.04;100.00;96927.69;4954471;28;20259;-91
2021/01/10 10:40:21;;;;;;;10.07;9.17;;;;;;;3.08;100.00;96920.53;4952122;29;20209;-89
2021/01/10 10:42:48;;;;;;;8.60;7.90;;;;;;;3.14;100.00;96927.94;4953409;28;20205;-89
2021/01/10 10:45:16;;;;;;;1.93;1.83;;;;;;;3.18;100.00;96920.78;4957351;29;20206;-90
2021/01/10 10:47:47;;;;;;;2.90;2.70;;;;;;;3.20;100.00;96913.75;4955758;29;20244;-91
2021/01/10 10:50:14;;;;;;;3.30;3.00;;;;;;;3.21;100.00;96913.63;4956245;28;20255;-88
2021/01/10 10:52:42;;;;;;;14.67;13.43;;;;;;;3.24;100.00;96910.84;4953393;28;20206;-88
2021/01/10 10:55:12;;;;;;;6.37;5.77;;;;;;;3.22;100.00;96907.53;4953937;28;20758;-88
2021/01/10 10:57:39;;;;;;;14.83;13.57;;;;;;;3.26;100.00;96909.00;4950307;28;20206;-87
2021/01/10 11:00:07;;;;;;;12.57;11.37;;;;;;;3.26;100.00;96902.97;4954058;28;20229;-87
2021/01/10 11:02:34;;;;;;;11.17;8.73;;;;;;;3.16;100.00;96910.50;4954469;28;20641;-89
2021/01/10 11:05:02;;;;;;;8.40;7.07;;;;;;;3.27;100.00;96902.03;4954347;28;20224;-88
2021/01/10 11:07:31;;;;;;;8.57;7.87;;;;;;;3.27;100.00;96894.25;4953876;28;20221;-87
2021/01/10 11:09:57;;;;;;;8.63;7.67;;;;;;;3.29;100.00;96884.56;4953644;28;20210;-88
2021/01/10 11:12:24;;;;;;;5.13;4.63;;;;;;;3.29;100.00;96890.63;4953919;29;20202;-89
2021/01/10 11:14:51;;;;;;;6.60;6.00;;;;;;;3.28;100.00;96888.94;4954232;28;20201;-89
2021/01/10 11:17:18;;;;;;;4.90;4.50;;;;;;;3.34;100.00;96898.94;4954207;29;20601;-87
2021/01/10 11:19:44;;;;;;;5.57;5.07;;;;;;;3.39;100.00;96896.03;4954063;29;20202;-88
2021/01/10 11:22:12;;;;;;;6.80;4.90;;;;;;;3.30;100.00;96894.88;4953952;29;20300;-89
2021/01/10 11:24:39;;;;;;;10.63;6.27;;;;;;;3.38;100.00;96891.78;4953388;29;20206;-88
2021/01/10 11:27:06;;;;;;;5.63;4.70;;;;;;;3.32;100.00;96884.38;4953763;28;20233;-88
2021/01/10 11:29:33;;;;;;;4.03;3.60;;;;;;;3.23;100.00;96877.19;4953969;28;20210;-88
2021/01/10 11:32:00;;;;;;;8.93;8.13;;;;;;;3.26;100.00;96877.00;4953794;28;20205;-89
2021/01/10 11:34:27;;;;;;;10.50;8.37;;;;;;;3.25;100.00;96868.34;4954446;28;20210;-88
2021/01/10 11:36:55;;;;;;;5.90;5.30;;;;;;;3.27;100.00;96863.88;4954222;28;20225;-88
2021/01/10 11:39:25;;;;;;;4.73;4.30;;;;;;;3.20;100.00;96873.00;4954123;28;20198;-89
2021/01/10 11:41:53;;;;;;;3.00;2.70;;;;;;;3.26;100.00;96883.03;4954661;28;20197;-88
2021/01/10 11:44:22;;;;;;;2.33;2.13;;;;;;;3.26;100.00;96867.44;4954349;28;20304;-88
2021/01/10 11:46:50;;;;;;;2.80;2.57;;;;;;;3.23;100.00;96877.19;4956238;28;20197;-88
2021/01/10 11:49:18;;;;;;;1.60;1.50;;;;;;;3.24;100.00;96876.25;4954055;28;20244;-88